Chrisopigi Lady — A8EQ9 — position and weather

sailwx.info

Track history (hours):
 
Tides and Currents Weather Stations Pressure Air Temp Water Temp Dewpoint Dewpoint Depression Visibility Wind Speed Wind Dir Waves Ship Positions

Chrisopigi Lady

Last reported at 2018-Apr-22 12:06 UTC. Time now 2018-Apr-25 08:56 UTC.
Position N 24°39' E 120°27'.

Length 228 m; draft 8 m.

Type: Ship (hazmat cat A). MMSI: 636012314.

Date/timePositionNaut miles runAvg speedWind from/ knotsBaromVisibWave heightAir tempDewpointWater temp
2018-Apr-22 12:06N 24°39' E 120°27'215.0
2018-Apr-22 11:59N 24°38' E 120°26'714.7
2018-Apr-22 11:30N 24°32' E 120°22'1914.1
2018-Apr-22 10:09N 24°16' E 120°11'214.0
2018-Apr-22 10:00N 24°14' E 120°09'714.1
2018-Apr-22 09:30N 24°08' E 120°05'713.8
2018-Apr-22 08:59N 24°02' E 120°01'1114.1
2018-Apr-22 08:11N 23°53' E 119°54'315.5
2018-Apr-22 08:00N 23°50' E 119°54'815.2
2018-Apr-22 07:31N 23°43' E 119°53'815.9
2018-Apr-22 07:00N 23°35' E 119°54'816.0
2018-Apr-22 06:30N 23°27' E 119°55'815.8
2018-Apr-22 06:00N 23°19' E 119°55'714.1
2018-Apr-22 05:31N 23°13' E 119°50'1015.3
2018-Apr-22 04:52N 23°06' E 119°43'615.4
2018-Apr-22 04:29N 23°03' E 119°38'815.0
2018-Apr-22 03:56N 22°57' E 119°31'614.8
2018-Apr-22 03:30N 22°53' E 119°26'914.7
2018-Apr-22 02:54N 22°47' E 119°19'1014.3
2018-Apr-22 02:13N 22°40' E 119°11'314.1
2018-Apr-22 01:59N 22°38' E 119°08'1214.2
2018-Apr-22 01:06N 22°31' E 118°57'114.0
2018-Apr-22 01:00N 22°30' E 118°56'  
2018-Apr-17 02:12N 23°20' E 119°53'3 9.2
2018-Apr-17 01:50N 23°23' E 119°53'5 9.0
2018-Apr-17 01:14N 23°29' E 119°54'3 8.9
2018-Apr-17 00:50N 23°32' E 119°54'4 8.8
2018-Apr-17 00:26N 23°36' E 119°53'9 9.4
2018-Apr-16 23:29N 23°45' E 119°54'  
Track history (hours):
 
Tides and Currents Weather Stations Pressure Air Temp Water Temp Dewpoint Dewpoint Depression Visibility Wind Speed Wind Dir Waves Ship Positions

Chrisopigi Lady

Last reported at 2018-Apr-22 12:06 UTC. Time now 2018-Apr-25 08:56 UTC.
Position N 24°39' E 120°27'.

Length 228 m; draft 8 m.

Type: Ship (hazmat cat A). MMSI: 636012314.

Date/timePositionNaut miles runAvg speedWind from/ knotsBaromVisibWave heightAir tempDewpointWater temp
2018-Apr-22 12:06N 24°39' E 120°27'215.0
2018-Apr-22 11:59N 24°38' E 120°26'714.7
2018-Apr-22 11:30N 24°32' E 120°22'1914.1
2018-Apr-22 10:09N 24°16' E 120°11'214.0
2018-Apr-22 10:00N 24°14' E 120°09'714.1
2018-Apr-22 09:30N 24°08' E 120°05'713.8
2018-Apr-22 08:59N 24°02' E 120°01'1114.1
2018-Apr-22 08:11N 23°53' E 119°54'315.5
2018-Apr-22 08:00N 23°50' E 119°54'815.2
2018-Apr-22 07:31N 23°43' E 119°53'815.9
2018-Apr-22 07:00N 23°35' E 119°54'816.0
2018-Apr-22 06:30N 23°27' E 119°55'815.8
2018-Apr-22 06:00N 23°19' E 119°55'714.1
2018-Apr-22 05:31N 23°13' E 119°50'1015.3
2018-Apr-22 04:52N 23°06' E 119°43'615.4
2018-Apr-22 04:29N 23°03' E 119°38'815.0
2018-Apr-22 03:56N 22°57' E 119°31'614.8
2018-Apr-22 03:30N 22°53' E 119°26'914.7
2018-Apr-22 02:54N 22°47' E 119°19'1014.3
2018-Apr-22 02:13N 22°40' E 119°11'314.1
2018-Apr-22 01:59N 22°38' E 119°08'1214.2
2018-Apr-22 01:06N 22°31' E 118°57'114.0
2018-Apr-22 01:00N 22°30' E 118°56'  
2018-Apr-17 02:12N 23°20' E 119°53'3 9.2
2018-Apr-17 01:50N 23°23' E 119°53'5 9.0
2018-Apr-17 01:14N 23°29' E 119°54'3 8.9
2018-Apr-17 00:50N 23°32' E 119°54'4 8.8
2018-Apr-17 00:26N 23°36' E 119°53'9 9.4
2018-Apr-16 23:29N 23°45' E 119°54'  

Dump ship's entire track history